首页
METAR-TAF:

METAR-TAF

机场 :

North Las Vegas Airport

北拉斯維加斯, 内华达州, 美国

纬度: 36-12-42N, 经度: 115-11-45W, 海拔: 672米

当前天气观测

该预报发布于18分钟前的20:53 UTC
静风
温度 15°C
湿度 48%
气压 1009 hPa
能見度: 16.1公里
多云层高于7000英尺

METAR: KVGT 142053Z 00000KT 10SM BKN070 15/04 A2980 RMK AO2 SLP105 T01500044 58025

时间: 13:11 (21:11 UTC)

预报

该预报发布于3小时和38分钟前的17:33 UTC
预报有效从14日的 18点(UTC)到 15日的 18点(UTC)
风速7节,风向
能見度: 10公里
少量云层高于8000英尺
多云层高于25000英尺
从 14日的 2100点(UTC)
风速7节,风向北转东北
能見度: 10公里
少量云层高于15000英尺
散云层高于25000英尺
从 15日的 0200点(UTC)
风速8节,风向北转西北
能見度: 10公里
多云层高于7000英尺
从 15日的 0600点(UTC)
风速14节,风向北转西北,有时为22节阵风
能見度: 10公里
多云层高于7000英尺
附近有阵雨
从 15日的 1200点(UTC)
风速14节,风向北转西北,有时为24节阵风
能見度: 10公里
散云层高于7000英尺

TAF: KVGT 141733Z 1418/1518 35007KT P6SM FEW080 BKN250 FM142100 03007KT P6SM FEW150 SCT250 FM150200 33008KT P6SM BKN070 FM150600 33014G22KT P6SM VCSH BKN070 FM151200 34014G24KT P6SM SCT070

超过4000个机场的气象观测和天气预报(METAR&TAF报告)。

可查询的气象台以黄色和红色小点在地图上表示。

将鼠标移到小点上方,可查看气象台名称。

然后点击查看天气观测和预报。

如需切换地图:点击带黑十字的绿色按钮放大地图;点击带横线的绿色按钮缩小地图;或者点击绿色箭头查看邻近地区的地图。


METAR-TAF: